Time;durP1;ratioP1;P1;durP2;ratioP2;P2;SDS_P1;SDS_P2;PMS_P1;PMS_P2;Temp;Humidity;BMP_temperature;BMP_pressure;BME280_temperature;BME280_humidity;BME280_pressure;Samples;Min_cycle;Max_cycle;Signal;HPM_P1;HPM_P2
2023/10/08 00:00:53;;;;;;;17.40;7.10;;;14.00;54.90;;;;;;5035893;28;20060;-71
2023/10/08 00:03:29;;;;;;;18.38;6.88;;;14.00;55.30;;;;;;5052994;28;20485;-70
2023/10/08 00:05:54;;;;;;;25.38;7.32;;;13.90;55.70;;;;;;5035247;28;20538;-70
2023/10/08 00:08:21;;;;;;;21.60;6.88;;;13.90;55.60;;;;;;5052606;28;20040;-71
2023/10/08 00:10:47;;;;;;;25.20;7.70;;;13.90;55.80;;;;;;5053150;28;20397;-70
2023/10/08 00:13:15;;;;;;;20.73;7.03;;;13.80;55.60;;;;;;5035086;28;20044;-71
2023/10/08 00:15:55;;;;;;;17.23;6.90;;;13.80;55.80;;;;;;5068393;28;20048;-71
2023/10/08 00:18:22;;;;;;;19.15;6.53;;;13.80;55.70;;;;;;5051753;28;20078;-71
2023/10/08 00:20:57;;;;;;;19.27;6.82;;;13.80;55.60;;;;;;5052938;28;20369;-70
2023/10/08 00:23:27;;;;;;;16.58;6.22;;;13.80;56.00;;;;;;5053153;28;20028;-71
2023/10/08 00:25:54;;;;;;;19.48;6.75;;;13.80;55.70;;;;;;5068463;28;20393;-72
2023/10/08 00:28:21;;;;;;;18.15;6.85;;;13.80;55.90;;;;;;5052788;28;20028;-73
2023/10/08 00:30:47;;;;;;;14.15;6.15;;;13.80;56.00;;;;;;5052989;28;20017;-75
2023/10/08 00:33:14;;;;;;;17.55;5.78;;;13.80;56.00;;;;;;5052789;28;20439;-72
2023/10/08 00:35:41;;;;;;;18.65;6.70;;;13.80;56.70;;;;;;5068007;28;20120;-71
2023/10/08 00:38:14;;;;;;;24.25;6.32;;;13.70;56.00;;;;;;5052816;28;20115;-71
2023/10/08 00:40:42;;;;;;;20.80;6.00;;;13.80;56.10;;;;;;5052821;28;20037;-71
2023/10/08 00:43:10;;;;;;;25.05;6.45;;;13.80;56.20;;;;;;5034710;28;20028;-71
2023/10/08 00:45:42;;;;;;;21.85;5.75;;;13.80;56.40;;;;;;5052811;28;20085;-71
2023/10/08 00:48:09;;;;;;;21.00;6.22;;;13.80;56.30;;;;;;5068186;28;20111;-72
2023/10/08 00:50:42;;;;;;;24.42;6.63;;;13.70;57.50;;;;;;5052826;28;20055;-72
2023/10/08 00:53:17;;;;;;;19.83;6.22;;;13.50;57.60;;;;;;5053089;28;20112;-71
2023/10/08 00:55:50;;;;;;;22.50;6.07;;;13.50;57.80;;;;;;5052616;28;20032;-71
2023/10/08 00:58:24;;;;;;;21.75;6.40;;;13.40;57.90;;;;;;5052902;28;20036;-71
2023/10/08 01:00:52;;;;;;;21.80;7.20;;;13.40;57.80;;;;;;5052449;28;20033;-71
2023/10/08 01:03:19;;;;;;;20.83;6.35;;;13.50;57.90;;;;;;5052629;28;20056;-72
2023/10/08 01:05:46;;;;;;;20.65;6.15;;;13.50;57.90;;;;;;5052531;28;20199;-72
2023/10/08 01:08:18;;;;;;;20.00;5.53;;;13.50;57.70;;;;;;5034592;28;20105;-73
2023/10/08 01:10:46;;;;;;;21.20;6.35;;;13.50;57.80;;;;;;5052703;28;20029;-72
2023/10/08 01:13:17;;;;;;;20.92;6.22;;;13.50;57.90;;;;;;5052462;28;20029;-71
2023/10/08 01:15:45;;;;;;;30.25;6.80;;;13.50;58.00;;;;;;5052879;28;20048;-71
2023/10/08 01:18:18;;;;;;;24.35;5.90;;;13.50;57.80;;;;;;5052612;28;20017;-71
2023/10/08 01:23:13;;;;;;;19.63;5.88;;;13.50;57.60;;;;;;5057202;28;20029;-71
2023/10/08 01:25:42;;;;;;;18.65;5.85;;;13.50;57.50;;;;;;5060073;28;20474;-72
2023/10/08 01:28:14;;;;;;;24.67;5.88;;;13.50;57.60;;;;;;5038278;28;20017;-71
2023/10/08 01:30:41;;;;;;;18.85;5.28;;;13.50;57.50;;;;;;5056719;28;20076;-78
2023/10/08 01:33:11;;;;;;;22.73;5.95;;;13.50;57.80;;;;;;5056284;28;20025;-72
2023/10/08 01:35:37;;;;;;;18.67;6.03;;;13.50;57.90;;;;;;5056643;28;20020;-75
2023/10/08 01:38:03;;;;;;;16.50;6.03;;;13.50;58.20;;;;;;5057149;28;20029;-82
2023/10/08 01:40:30;;;;;;;20.95;6.05;;;13.40;58.50;;;;;;5057689;28;20025;-86
2023/10/08 01:43:04;;;;;;;19.10;5.70;;;13.40;58.30;;;;;;5056739;28;20465;-75
2023/10/08 01:45:30;;;;;;;17.95;5.38;;;13.40;58.50;;;;;;5056809;28;20118;-73
2023/10/08 01:47:56;;;;;;;20.20;5.72;;;13.40;58.50;;;;;;5057255;28;20017;-78
2023/10/08 01:50:22;;;;;;;17.75;5.28;;;13.50;58.30;;;;;;5057192;28;20423;-76
2023/10/08 01:52:51;;;;;;;23.13;5.97;;;13.50;58.20;;;;;;5057150;28;20472;-84
2023/10/08 01:55:18;;;;;;;24.80;5.70;;;13.50;57.90;;;;;;5056865;28;20039;-80
2023/10/08 01:57:44;;;;;;;19.70;6.43;;;13.50;57.90;;;;;;5057197;28;20021;-79
2023/10/08 02:00:10;;;;;;;20.73;6.20;;;13.50;57.90;;;;;;5057107;28;20017;-71
2023/10/08 02:02:36;;;;;;;15.73;5.88;;;13.50;58.00;;;;;;5055484;28;20044;-71
2023/10/08 02:05:04;;;;;;;17.05;5.55;;;13.50;58.00;;;;;;5055652;28;20051;-73
2023/10/08 02:07:30;;;;;;;26.75;6.15;;;13.50;58.10;;;;;;5055390;28;20408;-71
2023/10/08 02:09:57;;;;;;;17.23;6.22;;;13.50;58.10;;;;;;5056154;28;20104;-81
2023/10/08 02:12:22;;;;;;;20.73;5.88;;;13.50;58.20;;;;;;5057480;28;20052;-73
2023/10/08 02:14:49;;;;;;;23.65;5.75;;;13.50;58.30;;;;;;5056659;28;20065;-80
2023/10/08 02:17:15;;;;;;;22.42;5.72;;;13.50;58.20;;;;;;5055563;28;20539;-73
2023/10/08 02:19:41;;;;;;;21.23;5.55;;;13.50;58.30;;;;;;5055971;28;20064;-78
2023/10/08 02:22:09;;;;;;;24.13;5.65;;;13.40;58.70;;;;;;5055336;28;20023;-73
2023/10/08 02:24:36;;;;;;;22.25;5.78;;;13.40;58.40;;;;;;5055513;28;20096;-73
2023/10/08 02:27:01;;;;;;;20.17;5.97;;;13.40;58.40;;;;;;5055584;28;20024;-73
2023/10/08 02:29:30;;;;;;;24.20;6.22;;;13.40;58.60;;;;;;5055751;28;20051;-79
2023/10/08 02:31:59;;;;;;;24.33;6.15;;;13.40;58.40;;;;;;5055376;28;20028;-72
2023/10/08 02:34:25;;;;;;;21.48;4.88;;;13.50;58.40;;;;;;5055829;28;20045;-84
2023/10/08 02:36:50;;;;;;;20.52;5.60;;;13.50;58.30;;;;;;5055240;28;20499;-73
2023/10/08 02:39:25;;;;;;;19.92;5.80;;;13.50;58.40;;;;;;5055534;28;20469;-83
2023/10/08 02:41:51;;;;;;;17.15;5.75;;;13.50;58.40;;;;;;5039335;28;20022;-71
2023/10/08 02:44:17;;;;;;;26.90;6.22;;;13.50;58.70;;;;;;5055418;28;20072;-71
2023/10/08 02:46:47;;;;;;;21.48;5.63;;;13.40;58.90;;;;;;5055383;28;20430;-71
2023/10/08 02:49:20;;;;;;;28.63;6.32;;;13.40;59.10;;;;;;5055633;28;20072;-78
2023/10/08 02:51:50;;;;;;;22.08;6.03;;;13.40;59.20;;;;;;5055052;28;20101;-81
2023/10/08 02:54:20;;;;;;;23.48;6.22;;;13.30;59.20;;;;;;5054636;28;20123;-83
2023/10/08 02:56:51;;;;;;;31.58;6.55;;;13.30;59.40;;;;;;5054975;28;20468;-72
2023/10/08 02:59:16;;;;;;;20.25;5.80;;;13.30;59.50;;;;;;5054457;28;20025;-84
2023/10/08 03:01:42;;;;;;;29.92;6.63;;;13.30;59.60;;;;;;5070423;28;20044;-83
2023/10/08 03:04:19;;;;;;;25.05;6.78;;;13.30;59.80;;;;;;5054729;28;20057;-72
2023/10/08 03:06:53;;;;;;;21.15;6.28;;;13.30;59.90;;;;;;5047689;28;20033;-84
2023/10/08 03:09:24;;;;;;;20.25;5.72;;;13.30;59.40;;;;;;5055571;28;20024;-85
2023/10/08 03:11:51;;;;;;;21.33;5.75;;;13.30;59.70;;;;;;5054073;28;20029;-83
2023/10/08 03:14:23;;;;;;;26.92;6.15;;;13.30;59.60;;;;;;5055331;28;20029;-84
2023/10/08 03:16:53;;;;;;;15.90;5.05;;;13.30;59.70;;;;;;5055747;28;20028;-84
2023/10/08 03:19:20;;;;;;;25.17;6.30;;;13.30;59.90;;;;;;5055235;28;20029;-84
2023/10/08 03:21:56;;;;;;;27.63;5.50;;;13.30;60.10;;;;;;5037707;28;20032;-84
2023/10/08 03:24:37;;;;;;;28.35;6.07;;;13.30;60.70;;;;;;5055472;28;20053;-80
2023/10/08 03:27:07;;;;;;;18.25;5.82;;;13.30;59.70;;;;;;5040826;28;20036;-84
2023/10/08 03:29:41;;;;;;;23.63;6.38;;;13.40;59.70;;;;;;5058874;28;20432;-72
2023/10/08 03:32:17;;;;;;;22.58;5.88;;;13.40;59.60;;;;;;5038063;28;20029;-82
2023/10/08 03:34:49;;;;;;;18.20;5.32;;;13.40;59.50;;;;;;5057252;28;20028;-80
2023/10/08 03:37:21;;;;;;;18.88;5.75;;;13.40;59.40;;;;;;5071978;28;20028;-86
2023/10/08 03:39:50;;;;;;;19.35;5.20;;;13.40;59.60;;;;;;5055776;28;20480;-72
2023/10/08 03:42:23;;;;;;;19.88;5.93;;;13.50;59.60;;;;;;5055176;28;20025;-73
2023/10/08 03:44:52;;;;;;;30.45;6.32;;;13.40;59.40;;;;;;5056205;28;20473;-75
2023/10/08 03:47:26;;;;;;;21.58;6.22;;;13.40;59.70;;;;;;5037871;28;20594;-72
2023/10/08 03:49:53;;;;;;;16.92;5.35;;;13.40;59.50;;;;;;5057046;28;20037;-72
2023/10/08 03:52:23;;;;;;;19.92;6.03;;;13.40;59.40;;;;;;5053499;28;20478;-71
2023/10/08 03:54:55;;;;;;;22.63;5.90;;;13.40;59.30;;;;;;5053684;28;20061;-73
2023/10/08 03:57:25;;;;;;;22.63;6.03;;;13.50;59.40;;;;;;5053685;28;20028;-72
2023/10/08 03:59:55;;;;;;;22.77;5.28;;;13.50;59.30;;;;;;5053582;28;20033;-75
2023/10/08 04:02:32;;;;;;;21.45;4.90;;;13.50;59.40;;;;;;5053642;28;20048;-74
2023/10/08 04:04:58;;;;;;;22.58;5.85;;;13.50;60.00;;;;;;5056522;28;20095;-72
2023/10/08 04:07:26;;;;;;;20.45;4.53;;;13.50;59.10;;;;;;5073362;28;20024;-72
2023/10/08 04:12:44;;;;;;;;;;;13.60;59.30;;;;;;5042602;28;20063;-74
2023/10/08 04:15:12;;;;;;;20.90;4.93;;;13.50;59.40;;;;;;5055243;28;19904;-73
2023/10/08 04:17:44;;;;;;;22.15;5.55;;;13.50;59.40;;;;;;5073377;28;20021;-72
2023/10/08 04:20:32;;;;;;;19.77;5.18;;;13.60;59.70;;;;;;5073175;28;20515;-78
2023/10/08 04:22:59;;;;;;;18.33;5.00;;;13.60;59.70;;;;;;5072829;28;20082;-75
2023/10/08 04:25:32;;;;;;;23.90;5.63;;;13.50;59.60;;;;;;5073104;28;20465;-72
2023/10/08 04:27:59;;;;;;;21.00;5.22;;;13.50;59.50;;;;;;5072896;28;20036;-75
2023/10/08 04:30:32;;;;;;;19.48;5.22;;;13.50;59.60;;;;;;5073067;28;20047;-74
2023/10/08 04:33:08;;;;;;;16.38;5.47;;;13.60;59.80;;;;;;5072949;28;20028;-81
2023/10/08 04:35:36;;;;;;;;;;;13.60;60.00;;;;;;5073953;28;20023;-72
2023/10/08 04:38:03;;;;;;;16.58;4.95;;;13.50;60.40;;;;;;5073036;28;19928;-72
2023/10/08 04:40:33;;;;;;;19.85;5.55;;;13.50;60.40;;;;;;5072847;28;20059;-73
2023/10/08 04:43:02;;;;;;;19.17;5.57;;;13.50;60.40;;;;;;5073460;28;20024;-72
2023/10/08 04:45:33;;;;;;;17.38;5.65;;;13.50;60.30;;;;;;5054869;28;20112;-78
2023/10/08 04:47:59;;;;;;;21.00;5.43;;;13.50;60.30;;;;;;5073214;28;20056;-78
2023/10/08 04:50:30;;;;;;;19.80;5.38;;;13.50;60.10;;;;;;5072937;28;20039;-79
2023/10/08 04:52:58;;;;;;;25.20;5.38;;;13.50;60.10;;;;;;5072827;28;20028;-79
2023/10/08 04:55:29;;;;;;;26.27;5.38;;;13.60;60.20;;;;;;5074802;28;20089;-72
2023/10/08 04:57:55;;;;;;;21.42;5.22;;;13.50;60.30;;;;;;5077047;28;20055;-72
2023/10/08 05:03:13;;;;;;;20.83;5.47;;;13.50;60.30;;;;;;5077751;28;20569;-71
2023/10/08 05:05:55;;;;;;;22.30;5.57;;;13.50;60.70;;;;;;5077321;28;20035;-74
2023/10/08 05:08:47;;;;;;;24.58;5.32;;;13.50;60.60;;;;;;5077111;28;20056;-74
2023/10/08 05:11:45;;;;;;;18.38;5.18;;;13.50;60.80;;;;;;5076744;28;20464;-72
2023/10/08 05:14:27;;;;;;;15.50;4.95;;;13.40;61.20;;;;;;5077164;28;20062;-72
2023/10/08 05:17:03;;;;;;;17.42;5.07;;;13.40;61.50;;;;;;5076914;28;20025;-78
2023/10/08 05:22:18;;;;;;;25.35;8.32;;;13.40;62.10;;;;;;5076847;28;20024;-72
2023/10/08 05:25:05;;;;;;;22.38;8.30;;;13.30;62.10;;;;;;5077111;28;20024;-71
2023/10/08 05:38:23;;;;;;;20.00;6.20;;;13.30;62.90;;;;;;5083314;28;20052;-81
2023/10/08 05:49:15;;;;;;;21.92;5.88;;;13.20;63.40;;;;;;5077646;28;20373;-82
2023/10/08 06:07:56;;;;;;;17.60;4.80;;;13.30;63.60;;;;;;5076653;28;20029;-77
2023/10/08 06:13:05;;;;;;;15.65;5.28;;;13.30;63.70;;;;;;5077561;28;20024;-73
2023/10/08 06:18:29;;;;;;;17.55;5.25;;;13.20;63.70;;;;;;5081225;28;20039;-71
2023/10/08 06:21:00;;;;;;;14.18;4.90;;;13.20;63.60;;;;;;5060702;28;20025;-82
2023/10/08 06:23:28;;;;;;;16.42;4.80;;;13.30;63.90;;;;;;5060079;28;20029;-83
2023/10/08 06:28:36;;;;;;;20.10;5.93;;;13.40;63.10;;;;;;5076524;28;20031;-81
2023/10/08 06:31:06;;;;;;;20.15;5.40;;;13.40;63.00;;;;;;5057981;28;20116;-79
2023/10/08 06:33:33;;;;;;;17.33;5.28;;;13.50;63.00;;;;;;5059453;28;20048;-79
2023/10/08 06:36:05;;;;;;;23.92;5.43;;;13.60;62.70;;;;;;5077294;28;20028;-71
2023/10/08 06:38:35;;;;;;;16.92;4.97;;;13.70;62.40;;;;;;5077161;28;20388;-78
2023/10/08 06:43:47;;;;;;;22.95;6.20;;;13.90;61.90;;;;;;5077922;28;20063;-75
2023/10/08 06:46:13;;;;;;;17.67;4.97;;;14.00;61.70;;;;;;5077321;28;20035;-88
2023/10/08 06:48:42;;;;;;;26.65;6.13;;;14.10;61.60;;;;;;5079509;28;20104;-74
2023/10/08 06:51:14;;;;;;;15.05;5.10;;;14.10;60.90;;;;;;5085777;28;20028;-73
2023/10/08 06:53:45;;;;;;;13.63;5.13;;;14.20;60.80;;;;;;5083611;28;20134;-80
2023/10/08 06:56:12;;;;;;;19.45;5.07;;;14.30;61.10;;;;;;5079869;28;20495;-86
2023/10/08 06:58:39;;;;;;;14.65;5.15;;;14.40;60.80;;;;;;5081087;28;20038;-87
2023/10/08 07:01:04;;;;;;;15.50;5.07;;;14.50;60.50;;;;;;5083620;28;20029;-81
2023/10/08 07:03:31;;;;;;;16.30;5.15;;;14.60;60.40;;;;;;5088182;28;20086;-84
2023/10/08 07:05:59;;;;;;;19.80;5.22;;;14.60;60.50;;;;;;5075433;28;20050;-77
2023/10/08 07:08:26;;;;;;;15.13;5.00;;;14.70;60.40;;;;;;5075074;28;20025;-79
2023/10/08 07:10:58;;;;;;;19.30;5.55;;;14.70;60.20;;;;;;5089516;28;20023;-72
2023/10/08 07:13:24;;;;;;;13.45;5.43;;;14.90;60.10;;;;;;5072510;28;20124;-79
2023/10/08 07:15:51;;;;;;;19.23;4.97;;;15.00;60.50;;;;;;5060860;28;20048;-76
2023/10/08 07:18:27;;;;;;;15.43;4.70;;;15.10;62.50;;;;;;5057686;28;20028;-77
2023/10/08 07:20:56;;;;;;;20.50;5.43;;;15.20;61.70;;;;;;5075198;28;20024;-78
2023/10/08 07:23:25;;;;;;;17.70;4.85;;;15.40;61.20;;;;;;5075174;28;20027;-78
2023/10/08 07:26:10;;;;;;;22.45;5.55;;;15.50;60.20;;;;;;5074424;28;20017;-77
2023/10/08 07:28:42;;;;;;;23.70;5.15;;;15.60;60.30;;;;;;5074575;28;20036;-75
2023/10/08 07:31:17;;;;;;;18.33;5.10;;;15.70;60.10;;;;;;5073877;28;20383;-79
2023/10/08 07:33:43;;;;;;;18.38;5.45;;;15.70;60.20;;;;;;5074133;28;20040;-76
2023/10/08 07:36:18;;;;;;;15.02;5.70;;;15.80;60.20;;;;;;5074107;28;20021;-79
2023/10/08 07:38:44;;;;;;;19.58;5.75;;;15.90;59.80;;;;;;5074854;28;20383;-79
2023/10/08 07:41:14;;;;;;;17.55;5.38;;;16.00;59.60;;;;;;5074085;28;20020;-77
2023/10/08 07:43:43;;;;;;;12.93;4.90;;;16.10;59.30;;;;;;5073844;28;20472;-79
2023/10/08 07:46:09;;;;;;;20.45;5.82;;;16.20;59.40;;;;;;5073908;28;20028;-76
2023/10/08 07:48:35;;;;;;;18.10;5.47;;;16.20;59.20;;;;;;5073952;28;20384;-77
2023/10/08 07:51:02;;;;;;;15.38;5.03;;;16.40;59.10;;;;;;5074123;28;20028;-78
2023/10/08 07:53:37;;;;;;;18.40;6.18;;;16.60;58.70;;;;;;5073549;28;20719;-80
2023/10/08 07:56:08;;;;;;;17.88;5.07;;;16.80;58.10;;;;;;5073630;28;20391;-76
2023/10/08 07:58:38;;;;;;;21.45;6.30;;;17.00;57.60;;;;;;5073418;28;20056;-79
2023/10/08 08:01:09;;;;;;;16.50;4.85;;;17.10;57.20;;;;;;5056065;28;20029;-78
2023/10/08 08:03:36;;;;;;;14.55;4.80;;;17.10;57.00;;;;;;5074412;28;20088;-80
2023/10/08 08:06:05;;;;;;;20.35;4.72;;;17.10;57.30;;;;;;5075824;28;20021;-81
2023/10/08 08:08:33;;;;;;;17.30;4.78;;;17.20;57.70;;;;;;5073981;28;20059;-81
2023/10/08 08:11:03;;;;;;;18.33;5.13;;;17.30;57.90;;;;;;5074114;28;20016;-81
2023/10/08 08:13:29;;;;;;;17.10;5.40;;;17.30;58.60;;;;;;5073498;28;20417;-79
2023/10/08 08:15:58;;;;;;;14.60;5.57;;;17.30;58.80;;;;;;5073620;28;20031;-81
2023/10/08 08:18:25;;;;;;;18.85;5.20;;;17.40;58.60;;;;;;5073601;28;20047;-77
2023/10/08 08:20:51;;;;;;;18.90;6.35;;;17.60;57.90;;;;;;5073405;28;20073;-79
2023/10/08 08:23:16;;;;;;;15.13;4.68;;;17.70;57.00;;;;;;5073587;28;20029;-80
2023/10/08 08:25:45;;;;;;;13.85;4.43;;;17.90;57.00;;;;;;5073290;28;20031;-79
2023/10/08 08:28:20;;;;;;;16.15;4.18;;;18.00;56.20;;;;;;5073436;28;20040;-79
2023/10/08 08:30:48;;;;;;;16.48;4.93;;;18.20;55.30;;;;;;5055012;28;20020;-75
2023/10/08 08:33:21;;;;;;;16.08;4.55;;;18.40;55.30;;;;;;5055443;28;20123;-76
2023/10/08 08:35:47;;;;;;;11.77;4.35;;;18.60;54.70;;;;;;5073256;28;20020;-73
2023/10/08 08:38:13;;;;;;;15.32;3.80;;;18.90;54.50;;;;;;5073288;28;20483;-75
2023/10/08 08:40:39;;;;;;;10.82;4.80;;;19.10;54.00;;;;;;5073151;28;20025;-75
2023/10/08 08:43:05;;;;;;;17.35;4.80;;;19.40;53.40;;;;;;5073113;28;20472;-74
2023/10/08 08:45:33;;;;;;;9.27;3.85;;;19.70;53.00;;;;;;5073043;28;20067;-77
2023/10/08 08:47:59;;;;;;;14.77;3.85;;;19.90;52.40;;;;;;5055761;28;20043;-79
2023/10/08 08:50:27;;;;;;;13.85;4.05;;;20.20;52.00;;;;;;5073392;28;20028;-79
2023/10/08 08:52:52;;;;;;;11.68;3.75;;;20.40;52.10;;;;;;5073071;28;20052;-80
2023/10/08 08:55:20;;;;;;;12.25;3.83;;;20.60;51.20;;;;;;5073171;28;20440;-81
2023/10/08 08:57:51;;;;;;;14.25;3.83;;;20.80;50.50;;;;;;5055158;28;20047;-78
2023/10/08 09:00:18;;;;;;;8.00;3.60;;;21.10;49.10;;;;;;5073229;28;20078;-80
2023/10/08 09:02:47;;;;;;;16.27;3.67;;;21.30;46.60;;;;;;5055035;28;20045;-80
2023/10/08 09:05:13;;;;;;;14.93;4.15;;;21.50;43.40;;;;;;5073257;28;20108;-77
2023/10/08 09:08:06;;;;;;;11.27;3.72;;;21.70;42.00;;;;;;5055148;28;20074;-81
2023/10/08 09:10:37;;;;;;;13.27;4.22;;;21.90;40.10;;;;;;5056703;28;20556;-80
2023/10/08 09:13:04;;;;;;;9.60;3.45;;;22.20;40.40;;;;;;5073247;28;20025;-79
2023/10/08 09:15:32;;;;;;;10.13;3.55;;;22.40;38.30;;;;;;5055439;28;20028;-77
2023/10/08 09:18:04;;;;;;;10.23;4.00;;;22.60;37.30;;;;;;5055764;28;20403;-80
2023/10/08 09:20:31;;;;;;;15.05;3.65;;;22.60;37.40;;;;;;5073995;28;20354;-77
2023/10/08 09:23:13;;;;;;;10.98;3.97;;;22.80;38.00;;;;;;5055542;28;20024;-80
2023/10/08 09:25:43;;;;;;;16.50;4.15;;;23.10;37.80;;;;;;5073391;28;20020;-77
2023/10/08 09:28:12;;;;;;;16.85;4.55;;;23.20;36.40;;;;;;5072758;28;20032;-78
2023/10/08 09:30:39;;;;;;;17.45;5.38;;;23.40;35.10;;;;;;5072796;28;20054;-75
2023/10/08 09:33:09;;;;;;;16.50;6.00;;;23.40;32.80;;;;;;5072853;28;20477;-78
2023/10/08 09:35:36;;;;;;;21.85;7.22;;;23.60;33.30;;;;;;5072863;28;20039;-74
2023/10/08 09:38:09;;;;;;;23.38;5.32;;;23.70;33.60;;;;;;5054449;28;20024;-73
2023/10/08 09:40:44;;;;;;;23.02;6.47;;;23.80;32.30;;;;;;5054750;28;20029;-78
2023/10/08 09:43:13;;;;;;;13.40;5.73;;;23.70;31.40;;;;;;5075509;28;20475;-79
2023/10/08 09:45:47;;;;;;;22.58;7.00;;;23.70;30.30;;;;;;5076424;28;20017;-78
2023/10/08 09:48:16;;;;;;;17.73;6.18;;;23.80;31.00;;;;;;5075853;28;20046;-80
2023/10/08 09:50:44;;;;;;;17.67;7.03;;;23.90;30.20;;;;;;5058153;28;20028;-80
2023/10/08 09:53:16;;;;;;;24.73;6.57;;;24.00;30.40;;;;;;5079710;28;20048;-76
2023/10/08 09:55:54;;;;;;;14.52;5.63;;;23.90;28.30;;;;;;5078858;28;20029;-75
2023/10/08 09:58:22;;;;;;;20.17;6.60;;;24.10;27.20;;;;;;5063001;28;20020;-76
2023/10/08 10:00:49;;;;;;;23.50;6.05;;;24.20;28.00;;;;;;5058353;28;20115;-80
2023/10/08 10:03:15;;;;;;;21.95;5.32;;;24.40;27.90;;;;;;5076273;28;20051;-78
2023/10/08 10:05:44;;;;;;;19.77;5.85;;;24.60;27.50;;;;;;5075928;28;20016;-77
2023/10/08 10:08:10;;;;;;;14.88;4.90;;;24.70;27.80;;;;;;5057607;28;20036;-71
2023/10/08 10:10:38;;;;;;;23.40;6.13;;;24.80;27.50;;;;;;5075772;28;20499;-73
2023/10/08 10:13:04;;;;;;;19.98;5.95;;;25.10;27.40;;;;;;5057664;28;20063;-73
2023/10/08 10:15:34;;;;;;;21.98;5.72;;;25.20;27.20;;;;;;5075776;28;20086;-72
2023/10/08 10:18:28;;;;;;;24.90;5.53;;;25.20;26.10;;;;;;5076089;28;20058;-77
2023/10/08 10:21:20;;;;;;;19.35;5.35;;;25.10;26.50;;;;;;5075800;28;20020;-77
2023/10/08 10:23:50;;;;;;;19.42;4.70;;;25.20;26.50;;;;;;5075482;28;20039;-78
2023/10/08 10:26:26;;;;;;;28.80;5.80;;;24.90;27.80;;;;;;5075722;28;20066;-71
2023/10/08 10:29:10;;;;;;;17.73;5.55;;;25.00;27.10;;;;;;5075569;28;20108;-76
2023/10/08 10:31:44;;;;;;;19.30;5.53;;;25.30;28.00;;;;;;5075513;28;20021;-72
2023/10/08 10:34:12;;;;;;;22.33;5.85;;;25.60;25.70;;;;;;5075414;28;20032;-78
2023/10/08 10:36:42;;;;;;;13.35;4.38;;;25.90;25.70;;;;;;5058613;28;20025;-79
2023/10/08 10:39:26;;;;;;;21.40;5.93;;;26.10;26.70;;;;;;5077521;28;20447;-81
2023/10/08 10:42:01;;;;;;;12.30;5.03;;;26.20;25.20;;;;;;5057740;28;20021;-80
2023/10/08 10:44:29;;;;;;;;;;;26.30;24.80;;;;;;5075965;28;20024;-80
2023/10/08 10:49:48;;;;;;;16.75;5.57;;;26.50;24.80;;;;;;5076761;28;20023;-76
2023/10/08 10:52:19;;;;;;;17.25;5.20;;;26.50;24.70;;;;;;5057663;28;20029;-77
2023/10/08 10:54:58;;;;;;;18.40;4.85;;;26.50;25.50;;;;;;5075591;28;20039;-74
2023/10/08 10:57:26;;;;;;;21.98;5.60;;;26.70;24.40;;;;;;5057286;28;20472;-78
2023/10/08 10:59:55;;;;;;;17.88;5.78;;;26.50;24.80;;;;;;5059576;28;20112;-81
2023/10/08 11:02:30;;;;;;;20.67;5.32;;;26.70;23.30;;;;;;5035242;28;20036;-79
2023/10/08 11:05:01;;;;;;;18.45;5.25;;;26.80;23.90;;;;;;5054457;28;20028;-73
2023/10/08 11:07:29;;;;;;;19.98;5.40;;;27.10;23.40;;;;;;5038679;28;20074;-76
2023/10/08 11:09:55;;;;;;;18.35;5.35;;;27.20;23.10;;;;;;5055631;28;20021;-85
2023/10/08 11:12:23;;;;;;;15.20;5.15;;;27.40;22.60;;;;;;5036765;28;20381;-84
2023/10/08 11:14:52;;;;;;;15.20;5.20;;;27.60;21.30;;;;;;5036908;28;20033;-77
2023/10/08 11:17:22;;;;;;;17.67;5.63;;;27.60;21.60;;;;;;5037457;28;20057;-81
2023/10/08 11:19:48;;;;;;;20.50;4.85;;;27.70;22.00;;;;;;5054028;28;20023;-82
2023/10/08 11:22:18;;;;;;;20.13;4.85;;;28.00;21.10;;;;;;5054884;28;20096;-82
2023/10/08 11:24:48;;;;;;;17.75;5.40;;;28.10;21.90;;;;;;5036691;28;20473;-83
2023/10/08 11:27:28;;;;;;;18.95;5.80;;;27.80;19.90;;;;;;5054332;28;20066;-72
2023/10/08 11:29:57;;;;;;;20.33;4.95;;;27.90;19.90;;;;;;5054466;28;20040;-84
2023/10/08 11:32:29;;;;;;;17.08;5.22;;;28.10;20.10;;;;;;5054152;28;20021;-74
2023/10/08 11:35:00;;;;;;;17.83;5.63;;;28.40;20.20;;;;;;5053827;28;20028;-74
2023/10/08 11:37:35;;;;;;;20.35;5.18;;;28.70;19.90;;;;;;5055362;28;20029;-71
2023/10/08 11:40:09;;;;;;;18.75;5.18;;;28.60;19.10;;;;;;5054956;28;20055;-72
2023/10/08 11:45:17;;;;;;;16.92;5.25;;;28.20;20.50;;;;;;5053570;28;20025;-74
2023/10/08 11:47:48;;;;;;;17.70;5.38;;;27.70;20.50;;;;;;5035791;28;20053;-73
2023/10/08 11:50:19;;;;;;;15.13;4.82;;;27.80;20.70;;;;;;5053550;28;20028;-82
2023/10/08 11:52:46;;;;;;;15.80;5.13;;;27.90;19.90;;;;;;5053755;28;20513;-74
2023/10/08 11:55:18;;;;;;;18.33;5.68;;;28.20;19.60;;;;;;5036774;28;20038;-73
2023/10/08 11:57:53;;;;;;;13.02;4.80;;;28.20;19.90;;;;;;5036390;28;20024;-76
2023/10/08 12:00:19;;;;;;;16.17;5.35;;;28.60;19.90;;;;;;5053799;28;20032;-73
2023/10/08 12:02:49;;;;;;;22.42;5.88;;;28.40;20.40;;;;;;5060235;28;20053;-74
2023/10/08 12:05:23;;;;;;;24.75;5.85;;;28.50;19.30;;;;;;5072992;28;20530;-73
2023/10/08 12:07:51;;;;;;;21.55;5.15;;;28.40;19.50;;;;;;5055654;28;20033;-72
2023/10/08 12:10:22;;;;;;;22.58;5.78;;;28.40;19.10;;;;;;5073296;28;20021;-71
2023/10/08 12:12:54;;;;;;;20.17;5.35;;;28.40;19.40;;;;;;5055337;28;20020;-72
2023/10/08 12:15:21;;;;;;;17.88;4.82;;;28.40;20.20;;;;;;5073207;28;20384;-70
2023/10/08 12:18:08;;;;;;;22.88;6.05;;;28.50;19.50;;;;;;5073314;28;20029;-75
2023/10/08 12:20:37;;;;;;;13.93;5.18;;;28.30;19.50;;;;;;5073143;28;20029;-72
2023/10/08 12:23:04;;;;;;;19.77;5.40;;;28.50;19.40;;;;;;5073262;28;20020;-77
2023/10/08 12:25:32;;;;;;;12.85;4.32;;;28.90;19.80;;;;;;5073199;28;20052;-74
2023/10/08 12:28:04;;;;;;;21.17;5.50;;;29.10;18.90;;;;;;5072021;28;20017;-75
2023/10/08 12:30:31;;;;;;;20.80;4.88;;;29.30;18.90;;;;;;5054848;28;20028;-73
2023/10/08 12:32:57;;;;;;;21.30;5.25;;;29.10;18.70;;;;;;5073267;28;20074;-74
2023/10/08 12:35:24;;;;;;;18.90;5.22;;;29.20;19.00;;;;;;5073447;28;20435;-74
2023/10/08 12:37:50;;;;;;;18.80;5.43;;;29.30;18.50;;;;;;5073519;28;20052;-76
2023/10/08 12:40:31;;;;;;;22.45;5.85;;;29.20;18.60;;;;;;5072999;28;20484;-76
2023/10/08 12:42:58;;;;;;;27.55;5.22;;;29.20;18.40;;;;;;5055569;28;20560;-76
2023/10/08 12:45:26;;;;;;;21.40;5.32;;;29.00;19.40;;;;;;5072872;28;20027;-73
2023/10/08 12:47:53;;;;;;;23.70;5.43;;;28.70;18.70;;;;;;5054923;28;20078;-81
2023/10/08 12:53:04;;;;;;;15.27;4.63;;;28.90;18.80;;;;;;5073133;28;20035;-80
2023/10/08 12:55:30;;;;;;;23.52;5.82;;;29.40;18.10;;;;;;5073271;28;20422;-81
2023/10/08 12:58:05;;;;;;;25.13;5.30;;;29.70;17.10;;;;;;5073369;28;20036;-82
2023/10/08 13:00:31;;;;;;;;;;;30.00;18.00;;;;;;5073553;28;20016;-79
2023/10/08 13:02:57;;;;;;;30.25;5.47;;;30.30;17.90;;;;;;5072919;28;19939;-82
2023/10/08 13:05:27;;;;;;;25.98;6.70;;;30.30;16.60;;;;;;5073058;28;20099;-81
2023/10/08 13:08:03;;;;;;;22.20;5.07;;;30.00;17.20;;;;;;5072917;28;20564;-81
2023/10/08 13:10:30;;;;;;;20.52;5.30;;;29.70;17.70;;;;;;5074060;28;20080;-80
2023/10/08 13:12:56;;;;;;;21.67;5.63;;;30.00;17.70;;;;;;5074161;28;20108;-81
2023/10/08 13:15:25;;;;;;;16.90;4.93;;;30.20;17.20;;;;;;5078183;28;20035;-83
2023/10/08 13:17:51;;;;;;;17.35;4.70;;;30.40;17.60;;;;;;5078254;28;20551;-81
2023/10/08 13:20:17;;;;;;;22.30;5.55;;;30.50;17.20;;;;;;5077007;28;20488;-81
2023/10/08 13:22:43;;;;;;;23.90;6.47;;;30.60;17.00;;;;;;5079885;28;20028;-82
2023/10/08 13:25:09;;;;;;;19.63;5.07;;;30.70;16.60;;;;;;5085377;28;20025;-81
2023/10/08 13:27:39;;;;;;;18.98;5.20;;;30.60;17.60;;;;;;5076541;28;20032;-84
2023/10/08 13:30:08;;;;;;;22.67;5.13;;;30.70;17.90;;;;;;5076419;28;20403;-74
2023/10/08 13:32:36;;;;;;;27.38;5.82;;;30.70;16.80;;;;;;5076385;28;20074;-83
2023/10/08 13:35:04;;;;;;;27.90;5.95;;;30.70;16.90;;;;;;5076383;28;20045;-77
2023/10/08 13:37:31;;;;;;;19.13;4.97;;;31.00;16.60;;;;;;5077089;28;20033;-82
2023/10/08 13:39:57;;;;;;;25.20;5.72;;;30.70;16.60;;;;;;5076056;28;20028;-77
2023/10/08 13:42:22;;;;;;;20.92;4.88;;;30.00;17.50;;;;;;5076335;28;20036;-77
2023/10/08 13:44:48;;;;;;;23.35;5.97;;;29.90;18.00;;;;;;5078087;28;20028;-75
2023/10/08 13:47:15;;;;;;;26.90;5.60;;;30.00;17.90;;;;;;5061198;28;20431;-76
2023/10/08 13:49:42;;;;;;;22.80;5.65;;;30.40;17.60;;;;;;5076849;28;20052;-76
2023/10/08 13:52:08;;;;;;;19.30;5.82;;;30.60;17.30;;;;;;5076288;28;20013;-82
2023/10/08 13:54:35;;;;;;;18.15;4.57;;;30.80;16.50;;;;;;5075772;28;20036;-78
2023/10/08 13:57:01;;;;;;;27.27;5.82;;;31.00;17.00;;;;;;5059301;28;20071;-81